createdAt,value
2023-03-13T00:00:25.059Z,97206.56
2023-03-13T00:04:27.130Z,97212.81
2023-03-13T00:08:30.095Z,97207.56
2023-03-13T00:12:32.318Z,97196.13
2023-03-13T00:16:35.628Z,97192.47
2023-03-13T00:20:37.723Z,97187.38
2023-03-13T00:24:39.710Z,97180.00
2023-03-13T00:28:42.593Z,97165.56
2023-03-13T00:32:46.278Z,97148.66
2023-03-13T00:36:48.402Z,97146.66
2023-03-13T00:40:58.116Z,97140.50
2023-03-13T00:45:03.065Z,97131.56
2023-03-13T00:49:05.858Z,97120.97
2023-03-13T00:53:09.006Z,97115.59
2023-03-13T00:57:11.188Z,97092.84
2023-03-13T01:01:14.654Z,97093.56
2023-03-13T01:05:16.687Z,97099.72
2023-03-13T01:09:18.797Z,97099.72
2023-03-13T01:13:20.780Z,97085.72
2023-03-13T01:17:22.820Z,97084.59
2023-03-13T01:21:25.858Z,97088.22
2023-03-13T01:25:27.881Z,97075.38
2023-03-13T01:29:29.918Z,97059.94
2023-03-13T01:33:32.048Z,97057.50
2023-03-13T01:37:34.112Z,97039.22
2023-03-13T01:41:37.910Z,97032.22
2023-03-13T01:46:04.407Z,97031.34
2023-03-13T01:50:19.689Z,97034.94
2023-03-13T01:54:40.578Z,97021.88
2023-03-13T01:58:43.073Z,97018.66
2023-03-13T02:02:49.096Z,97006.66
2023-03-13T02:06:57.004Z,97002.50
2023-03-13T02:11:39.533Z,96996.84
2023-03-13T02:15:41.951Z,96990.25
2023-03-13T02:19:48.286Z,96982.72
2023-03-13T02:24:30.055Z,96980.06
2023-03-13T02:28:35.884Z,96977.69
2023-03-13T02:32:41.499Z,96960.56
2023-03-13T02:36:45.731Z,96944.59
2023-03-13T02:40:50.376Z,96961.56
2023-03-13T02:44:52.531Z,96954.03
2023-03-13T02:48:56.958Z,96942.13
2023-03-13T02:53:07.037Z,96924.25
2023-03-13T02:57:09.511Z,96933.00
2023-03-13T03:01:11.661Z,96932.31
2023-03-13T03:05:16.290Z,96907.19
2023-03-13T03:09:20.019Z,96897.44
2023-03-13T03:13:22.327Z,96895.88
2023-03-13T03:17:24.377Z,96903.81
2023-03-13T03:21:26.573Z,96901.28
2023-03-13T03:25:28.631Z,96902.31
2023-03-13T03:29:31.002Z,96903.22
2023-03-13T03:33:34.775Z,96878.94
2023-03-13T03:37:40.312Z,96881.72
2023-03-13T03:41:42.474Z,96879.28
2023-03-13T03:45:46.285Z,96873.34
2023-03-13T03:49:49.159Z,96876.13
2023-03-13T03:53:52.116Z,96863.13
2023-03-13T03:57:54.441Z,96865.75
2023-03-13T04:02:15.083Z,96847.31
2023-03-13T04:06:18.898Z,96841.75
2023-03-13T04:10:21.936Z,96832.00
2023-03-13T04:14:24.033Z,96829.31
2023-03-13T04:18:27.687Z,96828.97
2023-03-13T04:22:29.840Z,96829.84
2023-03-13T04:26:33.744Z,96817.44
2023-03-13T04:30:36.420Z,96802.69
2023-03-13T04:34:53.030Z,96813.91
2023-03-13T04:39:16.543Z,96805.75
2023-03-13T04:43:36.933Z,96809.97
2023-03-13T04:47:46.426Z,96814.66
2023-03-13T04:52:11.668Z,96796.22
2023-03-13T04:56:42.630Z,96818.66
2023-03-13T05:01:06.111Z,96823.88
2023-03-13T05:05:26.533Z,96799.44
2023-03-13T05:09:51.680Z,96777.84
2023-03-13T05:14:16.576Z,96784.25
2023-03-13T05:18:41.512Z,96757.25
2023-03-13T05:23:02.309Z,96767.56
2023-03-13T05:27:22.763Z,96744.38
2023-03-13T05:31:38.252Z,96746.59
2023-03-13T05:35:49.577Z,96757.47
2023-03-13T05:40:10.855Z,96784.81
2023-03-13T05:44:35.711Z,96771.91
2023-03-13T05:48:55.561Z,96751.19
2023-03-13T05:53:16.337Z,96754.81
2023-03-13T05:57:48.513Z,96743.53
2023-03-13T06:02:08.854Z,96751.09
2023-03-13T06:06:15.612Z,96714.97
2023-03-13T06:10:29.521Z,96712.03
2023-03-13T06:14:31.981Z,96709.22
2023-03-13T06:18:52.300Z,96713.25
2023-03-13T06:22:54.341Z,96713.91
2023-03-13T06:26:56.320Z,96714.50
2023-03-13T06:31:06.211Z,96721.22
2023-03-13T06:35:08.732Z,96719.44
2023-03-13T06:39:12.050Z,96707.69
2023-03-13T06:43:14.054Z,96724.16
2023-03-13T06:47:16.137Z,96728.66
2023-03-13T06:51:20.915Z,96717.63
2023-03-13T06:55:24.368Z,96723.31
2023-03-13T06:59:26.464Z,96714.25
2023-03-13T07:03:28.541Z,96737.59
2023-03-13T07:07:32.594Z,96734.56
2023-03-13T07:11:34.735Z,96740.31
2023-03-13T07:15:36.919Z,96759.69
2023-03-13T07:19:38.912Z,96744.75
2023-03-13T07:23:41.210Z,96750.47
2023-03-13T07:27:43.324Z,96752.38
2023-03-13T07:31:45.463Z,96739.56
2023-03-13T07:35:49.243Z,96737.66
2023-03-13T07:39:51.366Z,96726.56
2023-03-13T07:43:53.411Z,96710.94
2023-03-13T07:47:55.407Z,96727.41
2023-03-13T07:51:57.677Z,96733.47
2023-03-13T07:56:11.732Z,96729.81
2023-03-13T08:00:16.818Z,96727.19
2023-03-13T08:04:19.504Z,96741.53
2023-03-13T08:08:21.567Z,96737.13
2023-03-13T08:12:23.599Z,96731.19
2023-03-13T08:16:31.744Z,96729.88
2023-03-13T08:20:33.849Z,96727.91
2023-03-13T08:24:35.907Z,96715.88
2023-03-13T08:28:39.236Z,96708.13
2023-03-13T08:32:41.325Z,96710.63
2023-03-13T08:36:43.700Z,96715.78
2023-03-13T08:40:45.704Z,96702.53
2023-03-13T08:44:47.766Z,96704.19
2023-03-13T08:48:51.649Z,96707.78
2023-03-13T08:52:53.767Z,96711.97
2023-03-13T08:56:55.828Z,96717.13
2023-03-13T09:01:03.198Z,96721.31
2023-03-13T09:05:05.366Z,96709.31
2023-03-13T09:09:08.115Z,96714.84
2023-03-13T09:13:10.260Z,96709.91
2023-03-13T09:17:12.256Z,96693.31
2023-03-13T09:21:18.178Z,96704.22
2023-03-13T09:25:20.237Z,96667.88
2023-03-13T09:29:22.324Z,96675.31
2023-03-13T09:33:24.320Z,96668.03
2023-03-13T09:37:26.533Z,96671.81
2023-03-13T09:41:43.699Z,96658.56
2023-03-13T09:45:48.232Z,96639.75
2023-03-13T09:49:57.012Z,96646.69
2023-03-13T09:54:20.113Z,96651.38
2023-03-13T09:58:25.796Z,96661.19
2023-03-13T10:02:36.457Z,96670.88
2023-03-13T10:06:41.810Z,96669.09
2023-03-13T10:10:49.740Z,96672.66
2023-03-13T10:15:17.314Z,96659.72
2023-03-13T10:19:27.226Z,96660.06
2023-03-13T10:23:57.761Z,96647.59
2023-03-13T10:28:00.903Z,96649.97
2023-03-13T10:32:05.924Z,96647.13
2023-03-13T10:36:13.703Z,96656.94
2023-03-13T10:40:25.417Z,96633.91
2023-03-13T10:44:33.273Z,96644.59
2023-03-13T10:48:37.636Z,96641.50
2023-03-13T10:52:45.708Z,96638.16
2023-03-13T10:56:48.120Z,96647.91
2023-03-13T11:00:50.688Z,96616.59
2023-03-13T11:04:54.043Z,96623.53
2023-03-13T11:09:05.142Z,96614.91
2023-03-13T11:13:36.444Z,96614.09
2023-03-13T11:17:43.010Z,96618.78
2023-03-13T11:21:57.240Z,96619.34
2023-03-13T11:26:19.478Z,96608.66
2023-03-13T11:30:44.220Z,96616.56
2023-03-13T11:34:54.097Z,96602.88
2023-03-13T11:39:11.617Z,96603.44
2023-03-13T11:43:30.363Z,96605.75
2023-03-13T11:48:07.966Z,96587.03
2023-03-13T11:52:21.201Z,96582.03
2023-03-13T11:56:32.556Z,96569.97
2023-03-13T12:00:44.039Z,96569.03
2023-03-13T12:04:54.488Z,96536.59
2023-03-13T12:09:04.817Z,96537.19
2023-03-13T12:13:34.519Z,96541.97
2023-03-13T12:17:46.444Z,96532.84
2023-03-13T12:21:54.655Z,96544.53
2023-03-13T12:26:04.435Z,96537.28
2023-03-13T12:30:42.199Z,96506.88
2023-03-13T12:35:23.766Z,96507.22
2023-03-13T12:39:50.032Z,96495.41
2023-03-13T12:44:07.603Z,96506.69
2023-03-13T12:48:43.517Z,96497.00
2023-03-13T12:53:22.789Z,96496.91
2023-03-13T12:58:06.482Z,96475.50
2023-03-13T13:02:20.326Z,96452.00
2023-03-13T13:06:23.023Z,96441.50
2023-03-13T13:10:26.454Z,96448.13
2023-03-13T13:14:28.424Z,96446.44
2023-03-13T13:18:32.312Z,96444.38
2023-03-13T13:22:36.624Z,96427.97
2023-03-13T13:26:38.997Z,96418.06
2023-03-13T13:30:41.351Z,96413.56
2023-03-13T13:34:52.613Z,96390.53
2023-03-13T13:38:55.665Z,96390.41
2023-03-13T13:43:00.367Z,96369.66
2023-03-13T13:47:03.194Z,96362.81
2023-03-13T13:51:23.739Z,96345.19
2023-03-13T13:55:48.683Z,96327.13
2023-03-13T13:59:54.531Z,96329.63
2023-03-13T14:04:13.234Z,96322.56
2023-03-13T14:08:31.197Z,96293.22
2023-03-13T14:12:38.689Z,96294.31
2023-03-13T14:16:46.125Z,96294.56
2023-03-13T14:21:03.041Z,96289.56
2023-03-13T14:25:05.562Z,96274.66
2023-03-13T14:29:15.543Z,96265.63
2023-03-13T14:33:18.246Z,96247.00
2023-03-13T14:38:01.163Z,96232.56
2023-03-13T14:42:10.373Z,96252.66
2023-03-13T14:46:31.863Z,96265.53
2023-03-13T14:50:35.190Z,96244.59
2023-03-13T14:54:58.994Z,96268.56
2023-03-13T14:59:08.028Z,96257.28
2023-03-13T15:03:16.928Z,96212.66
2023-03-13T15:07:19.890Z,96196.09
2023-03-13T15:11:34.705Z,96185.06
2023-03-13T15:15:36.734Z,96196.25
2023-03-13T15:19:38.780Z,96177.88
2023-03-13T15:23:42.236Z,96176.75
2023-03-13T15:27:44.745Z,96155.94
2023-03-13T15:31:47.041Z,96120.16
2023-03-13T15:35:50.411Z,96126.06
2023-03-13T15:39:53.521Z,96127.28
2023-03-13T15:43:56.943Z,96123.25
2023-03-13T15:48:00.390Z,96124.44
2023-03-13T15:52:02.419Z,96112.38
2023-03-13T15:56:19.799Z,96130.91
2023-03-13T16:00:25.826Z,96124.31
2023-03-13T16:04:27.917Z,96105.25
2023-03-13T16:08:36.143Z,96124.69
2023-03-13T16:12:38.992Z,96099.44
2023-03-13T16:16:41.054Z,96080.28
2023-03-13T16:20:43.106Z,96068.28
2023-03-13T16:24:45.236Z,96063.97
2023-03-13T16:28:48.107Z,96059.66
2023-03-13T16:32:50.618Z,96051.19
2023-03-13T16:36:52.651Z,96029.81
2023-03-13T16:40:54.632Z,96031.41
2023-03-13T16:44:56.986Z,96042.06
2023-03-13T16:48:59.723Z,96038.84
2023-03-13T16:53:01.808Z,96053.81
2023-03-13T16:57:04.388Z,96069.59
2023-03-13T17:01:09.009Z,96087.34
2023-03-13T17:05:12.495Z,96076.09
2023-03-13T17:09:17.790Z,96081.25
2023-03-13T17:13:20.407Z,96082.31
2023-03-13T17:17:23.017Z,96072.91
2023-03-13T17:21:28.894Z,96069.81
2023-03-13T17:25:31.454Z,96059.81
2023-03-13T17:29:33.513Z,96047.31
2023-03-13T17:33:35.622Z,96054.06
2023-03-13T17:37:37.618Z,96070.22
2023-03-13T17:41:39.665Z,96046.09
2023-03-13T17:45:41.800Z,96037.63
2023-03-13T17:49:44.692Z,96037.88
2023-03-13T17:53:47.160Z,96033.00
2023-03-13T17:57:49.451Z,96053.47
2023-03-13T18:01:51.624Z,96051.78
2023-03-13T18:05:55.678Z,96026.59
2023-03-13T18:09:57.738Z,96045.84
2023-03-13T18:14:00.871Z,96032.69
2023-03-13T18:18:03.045Z,96034.09
2023-03-13T18:22:06.677Z,96008.38
2023-03-13T18:26:30.121Z,95994.13
2023-03-13T18:30:32.219Z,95994.28
2023-03-13T18:34:35.076Z,95997.03
2023-03-13T18:38:37.210Z,95972.66
2023-03-13T18:42:39.475Z,95985.47
2023-03-13T18:46:45.531Z,96013.25
2023-03-13T18:50:47.511Z,95998.09
2023-03-13T18:54:49.683Z,96025.88
2023-03-13T18:58:53.469Z,96022.91
2023-03-13T19:02:55.603Z,96027.31
2023-03-13T19:06:57.592Z,95998.41
2023-03-13T19:10:59.854Z,95960.47
2023-03-13T19:15:01.905Z,95956.53
2023-03-13T19:19:10.939Z,95976.88
2023-03-13T19:23:12.945Z,95982.50
2023-03-13T19:27:16.778Z,95983.47
2023-03-13T19:31:18.886Z,96004.94
2023-03-13T19:35:21.820Z,95920.59
2023-03-13T19:39:25.950Z,95951.41
2023-03-13T19:43:27.944Z,95955.97
2023-03-13T19:47:29.972Z,95955.41
2023-03-13T19:51:31.954Z,95863.53
2023-03-13T19:55:33.949Z,95942.34
2023-03-13T19:59:38.659Z,95931.38
2023-03-13T20:03:41.122Z,95942.84
2023-03-13T20:07:43.452Z,95942.53
2023-03-13T20:11:45.533Z,95909.81
2023-03-13T20:15:47.692Z,95917.66
2023-03-13T20:19:49.741Z,95926.03
2023-03-13T20:23:52.086Z,95917.78
2023-03-13T20:27:54.857Z,95921.91
2023-03-13T20:32:00.295Z,95942.16
2023-03-13T20:36:09.302Z,95962.84
2023-03-13T20:40:12.083Z,95971.09
2023-03-13T20:44:14.208Z,95952.94
2023-03-13T20:48:16.887Z,95938.75
2023-03-13T20:52:18.876Z,95938.81
2023-03-13T20:56:20.917Z,95923.78
2023-03-13T21:00:23.650Z,95919.38
2023-03-13T21:04:25.910Z,95921.88
2023-03-13T21:08:27.981Z,95923.56
2023-03-13T21:12:29.992Z,95921.91
2023-03-13T21:16:32.092Z,95908.63
2023-03-13T21:20:34.653Z,95894.44
2023-03-13T21:24:36.930Z,95905.53
2023-03-13T21:28:40.187Z,95912.81
2023-03-13T21:32:42.251Z,95913.50
2023-03-13T21:36:44.382Z,95894.47
2023-03-13T21:40:46.392Z,95885.63
2023-03-13T21:44:48.475Z,95867.41
2023-03-13T21:48:50.506Z,95880.53
2023-03-13T21:52:52.842Z,95888.50
2023-03-13T21:56:54.844Z,95894.69
2023-03-13T22:00:57.746Z,95909.94
2023-03-13T22:05:01.303Z,95905.88
2023-03-13T22:09:04.254Z,95899.22
2023-03-13T22:13:12.322Z,95897.09
2023-03-13T22:17:17.625Z,95889.44
2023-03-13T22:21:19.832Z,95885.75
2023-03-13T22:25:21.944Z,95898.34
2023-03-13T22:29:24.108Z,95868.94
2023-03-13T22:33:26.363Z,95874.53
2023-03-13T22:37:28.436Z,95909.88
2023-03-13T22:41:30.467Z,95916.41
2023-03-13T22:45:34.011Z,95928.06
2023-03-13T22:49:36.058Z,95906.75
2023-03-13T22:53:39.953Z,95902.81
2023-03-13T22:57:41.960Z,95903.88
2023-03-13T23:01:44.061Z,95903.25
2023-03-13T23:05:47.503Z,95886.94
2023-03-13T23:09:49.618Z,95884.66
2023-03-13T23:13:51.757Z,95858.69
2023-03-13T23:17:53.846Z,95861.56
2023-03-13T23:21:55.861Z,95872.50
2023-03-13T23:26:03.443Z,95879.63
2023-03-13T23:30:07.990Z,95875.44
2023-03-13T23:34:10.091Z,95890.31
2023-03-13T23:38:13.074Z,95887.00
2023-03-13T23:42:15.069Z,95899.44
2023-03-13T23:46:23.109Z,95942.19
2023-03-13T23:50:25.247Z,95956.94
2023-03-13T23:54:27.276Z,95957.69
2023-03-13T23:58:29.297Z,95977.56
